This is the latest recevied weather packets stored in our database for station/object KC0AFB. If no packets are shown the sender has not sent any weather packets the latest 10 day(s).
| Time | Temp. | Humidity | Pressure | Rain* | Wind** | Luminosity | Snow |
|---|---|---|---|---|---|---|---|
| 1777341965 | 6.11° C | 53% | 1016 hPa | 0 mm | - | 0 W/m² | - |
| 1777341662 | 5.56° C | 53% | 1016 hPa | 0 mm | - | 0 W/m² | - |
| 1777341357 | 5.56° C | 53% | 1016.2 hPa | 0 mm | - | 0 W/m² | - |
| 1777341054 | 5.56° C | 53% | 1015.9 hPa | 0 mm | - | 0 W/m² | - |
| 1777340751 | 6.11° C | 53% | 1015.8 hPa | 0 mm | - | 1 W/m² | - |
| 1777340450 | 6.11° C | 52% | 1015.9 hPa | 0 mm | - | 3 W/m² | - |
| 1777340147 | 6.11° C | 52% | 1015.8 hPa | 0 mm | - | 5 W/m² | - |
| 1777339844 | 6.11° C | 53% | 1015.9 hPa | 0 mm | - | 8 W/m² | - |
| 1777339542 | 6.11° C | 52% | 1015.6 hPa | 0 mm | - | 11 W/m² | - |
| 1777339239 | 6.11° C | 52% | 1015.5 hPa | 0 mm | - | 15 W/m² | - |
| 1777338937 | 6.11° C | 52% | 1015.6 hPa | 0 mm | - | 21 W/m² | - |
| 1777338633 | 6.67° C | 53% | 1015.6 hPa | 0 mm | - | 27 W/m² | - |
| 1777338331 | 6.67° C | 52% | 1015.4 hPa | 0 mm | - | 31 W/m² | - |
| 1777338027 | 6.67° C | 52% | 1015.6 hPa | 0 mm | - | 33 W/m² | - |
| 1777337723 | 6.67° C | 51% | 1015.5 hPa | 0 mm | - | 36 W/m² | - |
| 1777337421 | 6.67° C | 51% | 1015.5 hPa | 0 mm | - | 39 W/m² | - |
| 1777337118 | 6.67° C | 51% | 1015.6 hPa | 0 mm | - | 39 W/m² | - |
| 1777336815 | 6.67° C | 51% | 1015.5 hPa | 0 mm | - | 45 W/m² | - |
| 1777336515 | 7.22° C | 52% | 1015.6 hPa | 0 mm | - | 45 W/m² | - |
| 1777336212 | 7.22° C | 51% | 1015.3 hPa | 0 mm | - | 60 W/m² | - |
| 1777335909 | 7.78° C | 51% | 1015.5 hPa | 0 mm | - | 60 W/m² | - |
| 1777335605 | 7.78° C | 49% | 1015.2 hPa | 0 mm | - | 65 W/m² | - |
| 1777335303 | 8.33° C | 49% | 1015.1 hPa | 0 mm | - | 118 W/m² | - |
| 1777335000 | 8.33° C | 49% | 1015.3 hPa | 0 mm | - | 122 W/m² | - |
| 1777334697 | 7.78° C | 49% | 1015.3 hPa | 0 mm | - | 65 W/m² | - |
* Rain latest hour (hover to see other rain measurements)
** Current wind speed in m/s (hover to see current wind gust speed)